Timeline UpdatesTrip UpdatesNews PostsPvt PostsTravel TipsAdmin PostsConv PostsFollowed PostsChat RequestsBlog PostsPNR Posts

Disclaimer
Search
 
 
Thu Apr 24, 2014 05:44:53 ISTHomeTrainsΣChainsAtlasPNRForumGalleryNewsFAQTripsMembersLoginFeedback
No Recent News for this Train
Other Trains in the News **new
Latest...
Permanent Augmentation of 1 2AC Coach from 3/2/14
Tue Jan 28, 2014 (07:34PM)
⇐ Return Journey: Train# 12990

12989/Dadar Ajmer Superfast Express

Oct 14 2013 (6:14PM)
Change Departure Station:
Change Arrival Station:
Post a Train Travel TipPost a Train Travel Tip **new
Post a Comment/Question/Picture/VideoPost a Comment/Question/Picture/Video
Pantry/Catering
✕ NO Pantry Car
✓ Catering Avbl
RSA - Rake Sharing
No Rake Sharing Arrangement.
Rake/Coach Composition
LOCO - SLR cum Ladies-GEN-GEN-A2-A1-B1-B2-B3-S13-S12-S11-S10-S9-S8-S7-S6-S5-S4-S3-S2-S1-GEN-GEN-SLR.
Loco
DDR-ADI --- BL WCAM 1/ BRC WAP4E / WAP5 ADI-AII...
Read more...
--- vatva WDM / BGKT WDP 4
News    PNR    Forum    Time-Table    Availability    Fare Chart    Map    Arr/Dep History    Trips    Gallery    ΣChains    X/O    Timeline    
Travel Time: 13h 38m    17 halts    Distance: 725 km    Avg Speed: 53 km/hr
Type: SuperFast
Zone: NWR/North Western
Departs @ 18:27 (Avg 2m late)
Platform# 1
 M  T S
Surat/ST 
Arrives @ 08:05 +1 night (Avg 18m late)
Platform# 1
S T  F 
Ajmer Junction/AII 

17 halts. 130 intermediate Stations between Surat and Ajmer Junction

Hide intermediate Stations  Show Old Time-Table

#CodeStation NameX/OArrivesAvgDepartsAvgHaltPFDay#KmSpeedElevZoneAddress
1DDRMumbai Dadar Western (6)  -14:35+261-257.2516mWRMumbai, Maharashtra
1.1MRUMumbai Matunga Road (2)  14:36-14:36-  1-255.9 517mWRMumbai, Maharashtra
1.2MMMumbai Mahim Junction (6)  14:38-14:38-  1-254.7 515mWRMumbai, Maharashtra
1.3BABandra (7)  14:40-14:40-  1-253.0 516mWRMumbai, Maharashtra
1.4BDTSMumbai Bandra Terminus (5)X  14:41-14:41-  1-252.2 514mWRMumbai 400050, Maharashtra
1.5KHARKhar (6)  14:42-14:42-  1-251.3 517mWRMumbai, Maharashtra
1.6STCSanta Cruz (6)  14:44-14:44-  1-249.9 5110mWRMumbai, Maharashtra
1.7VLPVille Parle (6)  14:46-14:46-  1-248.0 5111mWRMumbai, Maharashtra
1.8ADHMumbai Andheri (9)  14:48-14:48-  1-246.0 5112mWRMumbai, Maharashtra
1.9JOSJogeshwari (4)  14:51-14:51-  1-243.8 5114mWRMumbai, Maharashtra
1.10GMNGoregaon (5)  14:54-14:54-  1-240.7 5115mWRMumbai - 400104, Maharashtra
1.11MDDMalad (4)  14:57-14:57-  1-238.3 5118mWRMumbai-400064, Maharashtra
1.12KILEKandivli (4)  15:00-15:00-  1-236.2 5114mWRMumbai, Maharashtra
2BVIMumbai Borivali (8)  15:03+1115:06+123m41-233.47719mWRMumbai - 400092, Maharashtra
2.1DICDahisar (4)  15:08-15:08-  1-231.1 7714mWRMumbai, Maharashtra
2.2MIRAMira Road (4)  15:10-15:10-  1-227.7 773mWRMira Bhayandar, Maharashtra
2.3BYRBhayandar (6)X  15:13-15:13-  1-224.4 776mWRThane, Maharashtra
2.4NIGNaigaon (4)  15:17-15:17-  1-219.7 775mWRNaigaon West, Maharashtra
2.5BSRVasai Road (7)  15:20-15:20-  1-216.0 777mWRThane-401202, Maharashtra
2.6NSPNallasopara (4)  15:23-15:23-  1-211.8 775mWRNallasopara station Rd, Maharashtra
2.7VRVirar (8)X  15:26-15:26-  1-207.6 776mWRThane, Maharashtra
2.8VTNVaitarna (2)  15:33-15:33-  1-199.1 773mWRThane, Maharashtra
2.9SAHSaphale (2)XO  15:39-15:39-  1-191.3 778mWRThane, Maharashtra
2.10KLVKelve Road (3)  15:44-15:44-  1-184.9 7710mWRThane, Maharashtra
2.11PLGPalghar (3)  15:51-15:51-  1-176.5 7719mWRPalghar, Maharashtra
2.12UOIUmroli (2)  15:56-15:56-  1-170.1 778mWRBoisar, Maharashtra
2.13BORBoisar (3)  15:59-15:59-  1-165.2 7717mWRBoisar Tel.no-02525-266626, Maharashtra
2.14VGNVangaon (3)X  16:07-16:07-  1-155.8 7711mWRThane, Maharashtra
2.15DRDDahanu Road (5)  16:16-16:16-  1-143.5 7712mWRDahanu, Maharashtra
2.16GVDGholvad (4)X  16:25-16:25-  1-132.3 7714mWRGholvad, Maharashtra
2.17BRRDBordi Road (2)X  16:29-16:29-  1-127.4 7717mWRBordi, Maharashtra
2.18UBRUmbargam Road (3)  16:32-16:32-  1-123.2 7730mWRUmbergaon, Gujarat
2.19SJNSanjan (3)  16:37-16:37-  1-117.8 7722mWRSanjan, Gujarat
2.20BLDBhilad (3)  16:46-16:46-  1-106.2 7733mWRBhilad, Gujarat
2.21KEBKarambeli (2)O  16:49-16:49-  1-101.4 7729mWRNational Highway 8, Gujarat
2.22VAPIVapi (3)X  16:54-16:54-  1-94.9 7727mWRVapi, Gujarat
2.23BAGDBagwada (2)  17:00-17:00-  1-88.2 7722mWRNH8, Gujarat
2.24UVDUdvada (3)X  17:02-17:02-  1-85.4 7718mWRUdvada, Gujarat
2.25PADPardi (3)X  17:07-17:07-  1-79.4 7719mWRValsad, Gujarat
2.26ATULAtul (3)O  17:10-17:10-  1-75.4 7722mWRValsad, Gujarat
3BLValsad (3)  17:15+817:17+92m21-68.78115mWRValsad, Gujarat
3.1DGIDungri (3)  17:24-17:24-  1-59.8 8120mWRNH 8, Gujarat
3.2JRSJoravasan (2)  17:27-17:27-  1-54.7 8115mWRJoravasan, Gujarat
3.3BIMBilimora Junction (4)X  17:30-17:30-  1-50.8 8111mWRBilimora, Gujarat
3.4AMLAmalsad (3)X  17:34-17:34-  1-45.2 8112mWRAmalsad, Gujarat
3.5ACLAncheli (2)  17:37-17:37-  1-41.4 8120mWRNavsari, Gujarat
3.6VDHVedchha (3)  17:40-17:40-  1-38.0 8113mWRNavsari, Gujarat
3.7HXRHansapore (2)  17:43-17:43-  1-34.2 8115mWRHansapore, Gujarat
3.8GNSTGandhi Smriti (2)  17:44-17:44-  1-32.6 8116mWRGandhi Smriti Navsari, Gujarat
4NVSNavsari (3)X  17:46+917:48+92m11-29.65214mWRNavsari, Gujarat
4.1MRLMaroli (3)  17:58-17:58-  1-21.2 5215mWRMaroli, Gujarat
4.2SCHSachin (3)X  18:05-18:05-  1-14.5 5211mWRKansad Road Sachin, Gujarat
4.3BHETBhestan (2)  18:12-18:12-  1-8.8 5213mWRSurat, Gujarat
4.4UDNUdhna Junction (3)  18:17-18:17-  1-4.0 5216mWRUdhna 394210, Gujarat
5ST»Surat (4)»X  18:22+218:27+25m110.06619mWRSurat 395001, Gujarat
5.1URNUtran (3)X  18:31-18:31-  13.9 6615mWRSurat, Gujarat
5.2KSEKosad (2)  18:33-18:33-  17.1 6617mWRSurat, Gujarat
5.3GTXGothangam (2)  18:37-18:37-  110.7 6619mWRAmroli Sayan Rd, Gujarat
5.4SYNSayan (3)X  18:39-18:39-  113.7 6621mWRSayan Satellite town, Gujarat
5.5KDSDKudsad (2)  18:46-18:46-  120.8 6618mWRNH 8, Gujarat
5.6KIMKim (2)  18:49-18:49-  123.6 6618mWRNH 8, Gujarat
5.7KSBKosamba Junction (3)X  18:56-18:56-  131.4 6630mWRKosamba, Gujarat
5.8HATHathuran (2)  19:00-19:00-  135.8 6632mWRKosamba, Gujarat
5.9PAOPanoli (3)X  19:03-19:03-  139.6 6629mWRPanoli, Gujarat
5.10SNJLSanjali (2)X  19:07-19:07-  143.9 6623mWRPanoli, Gujarat
5.11AKVAnkleshwar Junction (4)X  19:12-19:12-  149.9 6619mWRAnkleshwar, Gujarat
6BHBharuch Junction (5)XO  19:21+1019:23+102m1159.37419mWRBharuch, Gujarat
6.1CVJChavaj (2)  19:27-19:27-  164.3 7420mWRBharuch, Gujarat
6.2NIUNabipur (3)  19:33-19:33-  171.3 7424mWRNabipur, Gujarat
6.3VREVarediya (4)  19:38-19:38-  178.1 7421mWRNH 8, Gujarat
6.4PLJPalej (4)  19:44-19:44-  184.7 7429mWRPalej, Gujarat
6.5LKDLakodara (4)X  19:49-19:49-  191.9 7426mWRNH 8, Gujarat
6.6MYGLMiyagam Karjan Junction NG  19:56-19:56-  199.9 740mWRKarjan, Gujarat
6.7MYGMiyagam Karjan (2)  19:56-19:56-  1100.0 7429mWRKarjan, Gujarat
6.8KSPRKashipura Sarar (2)  20:02-20:02-  1107.7 7426mWRGIDC Industrial Area, Gujarat
6.9ITAItola (4)XO  20:05-20:05-  1111.5 7427mWRNational Highway 8, Gujarat
6.10VRMVarnama (2)X  20:08-20:08-  1115.5 7428mWRVadodara, Gujarat
6.11MPRMakarpura (4)  20:13-20:13-  1121.1 7430mWRVadodara, Gujarat
6.12VSVishvamitri (4)  20:18-20:18-  1126.8 7430mWRVadodara, Gujarat
7BRCVadodara Junction (7)X  20:20+1620:25+165m31129.86736mWRVadodara, Gujarat
7.1BRGYVadodara D CabinX  20:26-20:26-  1130.4 6736mWRVadodara, Gujarat
7.2BJWBajva (3)  20:31-20:31-  1137.0 6738mWRVadodara, Gujarat
7.3KRCAKarachiya Yard  20:33-20:33-  1139.0 6739mWRVadodara, Gujarat
7.4RNORanoli (2)  20:35-20:35-  1140.8 6739mWRVadodara District, Gujarat
7.5NDRNandesari (2)  20:39-20:39-  1145.0 6742mWRNandesari, Gujarat
7.6VDAVasad Junction (3)  20:43-20:43-  1150.0 6740mWRVasad, Gujarat
7.7ADDAdas Road (4)  20:47-20:47-  1154.6 6742mWRNational Highway 8, Gujarat
7.8VXDVadod (3)X  20:51-20:51-  1158.7 6744mWRAnand District, Gujarat
8ANNDAnand Junction (6)X  20:57+1420:59+142m21165.57444mWRAnand, Gujarat
8.1KBRVKanjari Boriyavi Junction (4)  21:05-21:05-  1173.0 7439mWRKanjari, Gujarat
8.2UTDUtarsanda (4)  21:10-21:10-  1178.5 7440mWRUttarsanda, Gujarat
9NDNadiad Junction (4)X  21:14+2221:16+222m21184.05137mWRNadiad, Gujarat
9.1GTEGothaj (2)X  21:27-21:27-  1193.3 5132mWRState Highway 3, Gujarat
9.2MHDMahemdavad Kheda Road (4)X  21:37-21:37-  1201.6 5137mWRMahemdavad, Gujarat
9.3NEPNenpur (2)  21:42-21:42-  1205.8 5135mWRState Highway 3, Gujarat
9.4KANJKanij (3)XO  21:45-21:45-  1208.6 5139mWRBareja-Barejadi Rd, Gujarat
9.5BJDBarejadi (3)X  21:50-21:50-  1213.0 5142mWRBareja-Barejadi Rd, Gujarat
9.6GERGeratpur (2)  21:54-21:54-  1216.3 5144mWRAhmadabad, Gujarat
9.7VTAVatva (4)  22:01-22:01-  1221.6 5149mWRDist. Ahmedabad 382445, Gujarat
9.8MANManinagar (2)X  22:06-22:06-  1226.4 5150mWRAhmadabad, Gujarat
9.9KKFKankaria  22:08-22:08-  1227.8 5148mWRAhmedabad, Gujarat
10ADIAhmedabad Junction (12)X  22:10+2422:30+3120m11229.65551mWRAhmedabad, Gujarat
10.1SBTASabarmati A Cabin  22:33-22:33-  1232.6 5556mWRSabarmati A Cabin, Gujarat
10.2SBICSabarmati Bridge  22:35-22:35-  1234.3 5554mWRSabarmati Bridge, Gujarat
10.3SBTSabarmati Junction (3)  22:36-22:36-  1235.0 5552mWRAhmedabad, Gujarat
10.4SBISabarmati Junction (3)  22:36-22:36-  1235.0 5555mWRAhmadabad, Gujarat
10.5SBISSabarmati South  22:40-22:40-  1238.3 5556mWRSabarmati South, Gujarat
10.6CLDBChandlodiya BX  22:44-22:44-  1242.7 5555mWRAhmedabad, Gujarat
10.7KHDKhodiyarX  22:52-22:52-  1250.0 5565mWRGandhinagar, Gujarat
10.8SHRDSaij Sertha Road (2)  23:00-23:00-  1256.6 5571mWRJhulasan, Gujarat
10.9KLLKalol (3)  23:04-23:04-  1260.8 5571mWRKalol, Gujarat
10.10CTRLChhatral  23:08-23:08-  1264.3 5572mWRState Highway 133, Gujarat
10.11ENIsand  23:10-23:10-  1266.1 5577mWRKhodiyar, Gujarat
10.12PNPansar  23:12-23:12-  1268.3 5574mWRPalanpur, Gujarat
10.13JULJhulasan (3)X  23:15-23:15-  1270.6 5577mWRMehsana, Gujarat
10.14GUSBGhumasan Bg  23:18-23:18-  1273.5 5581mWRChandarda, Gujarat
10.15GUSGhumasan  23:18-23:18-  1273.5 5582mWRState Highway 41, Gujarat
10.16DNWDangarwa  23:22-23:22-  1277.2 5583mWRJagudan, Gujarat
10.17KYSDKaiyal Sedhavi  23:27-23:27-  1281.6 5585mWRState Highway 217, Gujarat
10.18KYSBKaiyal Sedhavi Bg  23:27-23:27-  1281.6 5585mWRLanghanaj, Gujarat
10.19UMNAmbliyasanX  23:31-23:31-  1285.0 5590mWRMehsana, Gujarat
10.20JDNMJagudan  23:39-23:39-  1292.8 5590mWRKochva Road, Gujarat
10.21JDNJagudan  23:39-23:39-  1292.8 5590mWRKochva Road, Gujarat
10.22SXSShobhasan  23:44-23:44-  1297.1 5586mWRState Highway 41, Gujarat
11MSHMahesana Junction (6)  23:50+4223:55+425m11302.66295mWRMehsana, Gujarat
11.1MSHMMahesana  23:55-23:55-  1302.7 6294mWRMehsana, Gujarat
11.2BHUBhandu MotidauX  00:06-00:06-  2313.7 6297mWRMahesana, Gujarat
11.3UARUnawa Aithor  00:12-00:12-  2319.8 62108mWRGujarat State Highway 41, Gujarat
12UJAUnjha  00:16+4200:18+442m--2324.562116mWRUnjha, Gujarat
12.1KMLIKamli  00:25-00:25-  2331.8 62126mWRChhapi, Gujarat
12.2SIDSiddhpur  00:31-00:31-  2338.2 62136mWRState Highway 41, Gujarat
12.3DRWDharewada  00:37-00:37-  2343.8 62145mWRUnjha, Gujarat
13CHPChhapiX  00:44+4300:46+452m--2351.422169mWRBanaskantha, Gujarat
13.1UMUmardashiX  01:07-01:07-  2359.2 22187mWRChitrasani, Gujarat
14PNUPalanpur Junction (5)X  01:30+2401:55+325m--2367.670216mWRPalanpur, Gujarat
14.1KRJDKarjoda  02:00-02:00-  2373.7 70234mNWRChhapi, Gujarat
14.2CTTChitrasani  02:05-02:05-  2379.1 70225mNWRChitrasani, Gujarat
14.3JTYJethiX  02:09-02:09-  2383.5 70212mNWRBANASKANTHA, Gujarat
14.4IQGIqbal Gadh  02:14-02:14-  2389.6 70209mNWRBanaskantha, Gujarat
14.5SZASarotra Road  02:20-02:20-  2397.1 70216mNWRSarotra, Gujarat
14.6SIMShri AmirgadhX  02:25-02:25-  2402.5 70229mNWRAmirgadh, Gujarat
14.7MAAMaval  02:32-02:32-  2410.9 70245mNWRNational Highway 14, Rajasthan
15ABRAbu Road (3)X  02:40+2602:50+2610m22420.263264mNWRSirohi Dist, Rajasthan
15.1MXOMorthala  02:53-02:53-  2423.3 63267mNWRNH 14, Rajasthan
15.2KWIKivarliX  02:59-02:59-  2429.2 63281mNWRShri Amirgadh, Rajasthan
15.3BMNBhimana  03:06-03:06-  2437.1 63313mNWRAbu Road, Rajasthan
15.4SRPJSwarupGanj  03:14-03:14-  2445.6 63334mNWRSirohi Road, Rajasthan
15.5BNSBanas  03:22-03:22-  2454.0 63347mNWRSirohi Road, Rajasthan
16SOHSirohi Road (2)X  03:32+3803:34+402m12464.183369mNWRPindwara, Rajasthan
16.1KVJKeshavganj  03:40-03:40-  2472.0 83393mNWRJawai Bandh, Rajasthan
16.2NANANana  03:46-03:46-  2481.1 83355mNWRNana, Rajasthan
16.3KTRKothar  03:51-03:51-  2487.2 83346mNWRPali, Rajasthan
16.4MOIMori Bera  03:55-03:55-  2493.5 83323mNWRNana, Rajasthan
17JWBJawai Bandh  04:02+4804:04+492m12502.957292mNWRPali, Rajasthan
17.1BRLYBiroliya  04:13-04:13-  2511.1 57294mNWRBiroliya Rd, Rajasthan
18FAFalna (2)X  04:21+5104:23+552m22519.158282mNWRFalna, Rajasthan
18.1KZQKhimel  04:31-04:31-  2527.2 58277mNWRJawai Bandh, Rajasthan
19RANIRaniX  04:38+5604:40+572m12533.568280mNWRRania, Rajasthan
19.1BGPRBhagwanpura  04:47-04:47-  2541.6 68276mNWRSomesar, Rajasthan
19.2JALJawali  04:54-04:54-  2549.2 68270mNWRRania, Rajasthan
19.3SOSSomesar  05:01-05:01-  2557.6 68269mNWRSomesar, Rajasthan
19.4BWABhinwaliya  05:07-05:07-  2563.7 68268mNWRPindwara, Rajasthan
19.5BGGBanta Raghunathgarh  05:12-05:12-  2569.6 68266mNWRSomesar, Rajasthan
19.6AUWAAuwa (2)  05:18-05:18-  2576.9 68265mNWRSomesar, Rajasthan
20MJMarwar Junction (4)  05:26+5305:28+532m12585.684267mNWRMarwar Junction, Rajasthan
20.1DRSDhareshwarX  05:34-05:34-  2594.4 84275mNWRMarwar Jn, Rajasthan
20.2BFYBhesana  05:39-05:39-  2600.9 84285mNWRMarwar, Rajasthan
21SODSojat Road (2)  05:43+5905:45+592m12606.563295mNWRSojat Road, Rajasthan
21.1BQNBagri Nagar  05:50-05:50-  2611.8 63295mNWRMarwar, Rajasthan
21.2BGXBagri Sajjanpur  05:54-05:54-  2615.9 63298mNWRHaripur, Rajasthan
21.3CNLChandawal  05:59-05:59-  2621.7 63304mNWRPali, Rajasthan
21.4GRIGuriyaX  06:09-06:09-  2631.9 63323mNWRPali, Rajasthan
21.5HPHaripur  06:17-06:17-  2639.8 63345mNWRPali, Rajasthan
21.6BARBarX  06:27-06:27-  2650.3 63383mNWRHaripur, Rajasthan
21.7SEUSendraO  06:35-06:35-  2659.1 63427mNWRSabalpura, Rajasthan
21.8APAAmarpura  06:43-06:43-  2667.3 63468mNWRKharwa, Rajasthan
22BERBeawar (2)  06:48+4706:50+462m22673.042447mNWRBeawar, Rajasthan
22.1BNGMBangurgram HaltX  06:57-06:57-  2677.9 42434mNWRBeawar, Rajasthan
22.2PPFPiplaj  07:04-07:04-  2682.4 42449mNWRBeawar, Rajasthan
22.3KRWKharwaX  07:13-07:13-  2688.7 42439mNWRAjmer, Rajasthan
22.4LNALamana  07:21-07:21-  2694.7 42441mNWRBeawar, Rajasthan
22.5MLIMangaliyawas  07:28-07:28-  2699.5 42430mNWRMangliyawas Railway Station, Rajasthan
22.6MKRAMakrera  07:36-07:36-  2704.7 42446mNWRKharwa, Rajasthan
22.7SDHSaradhna  07:42-07:42-  2709.5 42461mNWRMangaliyawas, Rajasthan
22.8DOZDaurai  07:54-07:54-  2717.7 42458mNWRMadar, Rajasthan
23AII•Ajmer Junction (5)•  08:05+18-12725.2-464mNWRPin: 305001, Rajasthan
Scroll to Top
Scroll to Bottom